createdAt,value
2023-04-09T00:00:30.879Z,5.56
2023-04-09T00:03:00.298Z,5.61
2023-04-09T00:05:28.423Z,5.51
2023-04-09T00:07:57.508Z,5.48
2023-04-09T00:10:25.925Z,5.50
2023-04-09T00:12:53.915Z,5.47
2023-04-09T00:15:30.545Z,5.47
2023-04-09T00:18:00.854Z,5.47
2023-04-09T00:20:28.810Z,5.45
2023-04-09T00:22:56.732Z,5.40
2023-04-09T00:25:24.706Z,5.30
2023-04-09T00:27:52.738Z,5.20
2023-04-09T00:30:21.415Z,5.10
2023-04-09T00:32:49.706Z,5.08
2023-04-09T00:35:19.091Z,5.07
2023-04-09T00:37:47.090Z,5.14
2023-04-09T00:40:15.642Z,5.26
2023-04-09T00:42:43.701Z,5.30
2023-04-09T00:45:12.277Z,5.21
2023-04-09T00:47:40.406Z,5.05
2023-04-09T00:50:09.688Z,4.99
2023-04-09T00:52:39.343Z,5.07
2023-04-09T00:55:07.904Z,5.11
2023-04-09T00:57:35.902Z,5.11
2023-04-09T01:00:04.750Z,4.99
2023-04-09T01:02:33.016Z,4.93
2023-04-09T01:05:01.353Z,4.94
2023-04-09T01:07:54.284Z,5.01
2023-04-09T01:10:36.023Z,4.89
2023-04-09T01:13:12.907Z,4.80
2023-04-09T01:15:49.525Z,4.68
2023-04-09T01:18:29.463Z,4.59
2023-04-09T01:21:03.691Z,4.55
2023-04-09T01:23:48.239Z,4.49
2023-04-09T01:26:30.819Z,4.45
2023-04-09T01:29:03.063Z,4.40
2023-04-09T01:31:35.319Z,4.43
2023-04-09T01:34:06.054Z,4.45
2023-04-09T01:36:36.715Z,4.40
2023-04-09T01:39:05.391Z,4.38
2023-04-09T01:41:36.465Z,4.41
2023-04-09T01:44:10.156Z,4.47
2023-04-09T01:46:41.260Z,4.45
2023-04-09T01:49:10.927Z,4.42
2023-04-09T01:51:39.222Z,4.49
2023-04-09T01:54:07.184Z,4.44
2023-04-09T01:56:43.227Z,4.44
2023-04-09T01:59:12.884Z,4.38
2023-04-09T02:01:47.370Z,4.24
2023-04-09T02:04:24.539Z,4.13
2023-04-09T02:07:04.740Z,4.23
2023-04-09T02:09:37.423Z,4.21
2023-04-09T02:12:11.788Z,4.10
2023-04-09T02:14:42.827Z,4.02
2023-04-09T02:17:10.981Z,4.04
2023-04-09T02:19:43.114Z,4.05
2023-04-09T02:22:12.462Z,4.16
2023-04-09T02:24:41.515Z,4.27
2023-04-09T02:27:10.153Z,4.22
2023-04-09T02:29:38.403Z,4.40
2023-04-09T02:32:08.201Z,4.43
2023-04-09T02:34:36.209Z,4.43
2023-04-09T02:37:04.269Z,4.54
2023-04-09T02:39:32.138Z,4.59
2023-04-09T02:42:00.976Z,4.69
2023-04-09T02:44:29.127Z,4.59
2023-04-09T02:46:57.100Z,4.54
2023-04-09T02:49:26.581Z,4.58
2023-04-09T02:51:54.462Z,4.63
2023-04-09T02:54:22.484Z,4.47
2023-04-09T02:56:50.568Z,4.31
2023-04-09T02:59:18.473Z,4.31
2023-04-09T03:01:46.502Z,4.26
2023-04-09T03:04:14.794Z,4.20
2023-04-09T03:06:44.194Z,4.17
2023-04-09T03:09:12.083Z,4.00
2023-04-09T03:11:40.016Z,4.10
2023-04-09T03:14:07.948Z,4.03
2023-04-09T03:16:35.896Z,3.99
2023-04-09T03:19:03.885Z,4.00
2023-04-09T03:21:31.970Z,3.88
2023-04-09T03:24:02.148Z,3.89
2023-04-09T03:26:35.989Z,3.90
2023-04-09T03:29:03.980Z,3.90
2023-04-09T03:31:32.153Z,3.91
2023-04-09T03:34:00.206Z,3.85
2023-04-09T03:36:28.867Z,3.92
2023-04-09T03:38:56.826Z,3.98
2023-04-09T03:41:27.520Z,3.92
2023-04-09T03:43:55.390Z,4.03
2023-04-09T03:46:23.372Z,4.03
2023-04-09T03:48:51.817Z,4.05
2023-04-09T03:51:20.462Z,4.07
2023-04-09T03:53:48.384Z,4.02
2023-04-09T03:56:16.499Z,4.12
2023-04-09T03:58:45.931Z,4.12
2023-04-09T04:01:13.807Z,4.18
2023-04-09T04:03:41.828Z,4.18
2023-04-09T04:06:09.919Z,4.13
2023-04-09T04:08:37.977Z,4.40
2023-04-09T04:11:06.474Z,4.25
2023-04-09T04:13:34.606Z,4.31
2023-04-09T04:16:07.675Z,4.64
2023-04-09T04:18:35.863Z,4.40
2023-04-09T04:21:04.014Z,4.50
2023-04-09T04:23:32.081Z,4.68
2023-04-09T04:26:00.229Z,4.59
2023-04-09T04:28:28.149Z,4.63
2023-04-09T04:30:56.125Z,4.41
2023-04-09T04:33:25.553Z,4.50
2023-04-09T04:35:53.754Z,4.46
2023-04-09T04:38:21.702Z,4.50
2023-04-09T04:40:49.663Z,4.60
2023-04-09T04:43:17.564Z,4.58
2023-04-09T04:45:45.533Z,4.66
2023-04-09T04:48:13.468Z,4.65
2023-04-09T04:50:42.776Z,4.65
2023-04-09T04:53:10.825Z,4.66
2023-04-09T04:55:40.364Z,4.78
2023-04-09T04:58:08.420Z,4.86
2023-04-09T05:00:36.514Z,4.72
2023-04-09T05:03:04.739Z,4.76
2023-04-09T05:05:32.817Z,4.87
2023-04-09T05:08:02.170Z,4.84
2023-04-09T05:10:30.852Z,5.08
2023-04-09T05:12:58.747Z,5.02
2023-04-09T05:15:27.045Z,5.03
2023-04-09T05:17:55.268Z,5.13
2023-04-09T05:20:23.296Z,5.16
2023-04-09T05:22:51.201Z,5.15
2023-04-09T05:25:20.959Z,5.23
2023-04-09T05:27:48.689Z,5.20
2023-04-09T05:30:16.693Z,5.25
2023-04-09T05:32:44.646Z,5.17
2023-04-09T05:35:12.686Z,5.16
2023-04-09T05:37:40.771Z,5.33
2023-04-09T05:40:10.382Z,5.50
2023-04-09T05:42:39.482Z,5.64
2023-04-09T05:45:09.963Z,5.40
2023-04-09T05:47:37.980Z,5.25
2023-04-09T05:50:07.454Z,5.24
2023-04-09T05:52:35.373Z,5.14
2023-04-09T05:55:03.468Z,5.36
2023-04-09T05:57:31.799Z,5.39
2023-04-09T06:00:01.094Z,5.59
2023-04-09T06:02:30.335Z,5.99
2023-04-09T06:04:58.378Z,5.90
2023-04-09T06:07:26.381Z,5.86
2023-04-09T06:09:54.684Z,5.67
2023-04-09T06:12:22.696Z,5.70
2023-04-09T06:14:50.708Z,5.57
2023-04-09T06:17:20.044Z,5.46
2023-04-09T06:19:48.014Z,5.41
2023-04-09T06:22:15.971Z,5.32
2023-04-09T06:24:43.902Z,5.43
2023-04-09T06:27:12.109Z,5.65
2023-04-09T06:29:40.093Z,5.66
2023-04-09T06:32:08.152Z,5.75
2023-04-09T06:34:37.473Z,5.82
2023-04-09T06:37:05.438Z,5.93
2023-04-09T06:39:33.522Z,5.90
2023-04-09T06:42:01.585Z,5.75
2023-04-09T06:44:29.507Z,5.79
2023-04-09T06:46:57.640Z,5.86
2023-04-09T06:49:25.693Z,5.79
2023-04-09T06:51:55.016Z,5.94
2023-04-09T06:54:23.051Z,6.12
2023-04-09T06:56:51.970Z,6.11
2023-04-09T06:59:19.900Z,6.20
2023-04-09T07:01:48.357Z,6.07
2023-04-09T07:04:16.711Z,6.18
2023-04-09T07:06:44.669Z,6.25
2023-04-09T07:09:14.058Z,6.25
2023-04-09T07:11:42.061Z,6.20
2023-04-09T07:14:09.953Z,6.20
2023-04-09T07:16:37.958Z,5.99
2023-04-09T07:19:07.412Z,6.04
2023-04-09T07:21:35.603Z,6.29
2023-04-09T07:24:03.623Z,6.71
2023-04-09T07:26:33.375Z,6.47
2023-04-09T07:29:02.116Z,6.39
2023-04-09T07:31:30.093Z,6.51
2023-04-09T07:33:58.089Z,6.86
2023-04-09T07:36:26.640Z,6.99
2023-04-09T07:38:54.908Z,7.34
2023-04-09T07:41:23.191Z,7.00
2023-04-09T07:43:52.502Z,6.67
2023-04-09T07:46:21.780Z,6.76
2023-04-09T07:48:50.848Z,6.77
2023-04-09T07:51:19.398Z,6.89
2023-04-09T07:53:47.664Z,6.89
2023-04-09T07:56:15.725Z,6.99
2023-04-09T07:58:43.669Z,7.17
2023-04-09T08:01:12.987Z,7.11
2023-04-09T08:03:41.720Z,7.19
2023-04-09T08:06:09.732Z,7.16
2023-04-09T08:08:37.755Z,7.42
2023-04-09T08:11:07.164Z,7.36
2023-04-09T08:13:35.282Z,7.36
2023-04-09T08:16:03.881Z,7.08
2023-04-09T08:18:33.268Z,6.49
2023-04-09T08:21:06.335Z,6.60
2023-04-09T08:23:34.325Z,6.68
2023-04-09T08:26:02.234Z,6.82
2023-04-09T08:28:30.196Z,6.87
2023-04-09T08:30:58.368Z,7.13
2023-04-09T08:33:26.836Z,7.34
2023-04-09T08:35:56.174Z,7.61
2023-04-09T08:38:24.205Z,7.89
2023-04-09T08:40:52.232Z,7.91
2023-04-09T08:43:37.294Z,7.60
2023-04-09T08:46:15.539Z,7.78
2023-04-09T08:48:45.920Z,7.70
2023-04-09T08:51:20.432Z,8.11
2023-04-09T08:53:52.636Z,8.45
2023-04-09T08:56:21.272Z,8.36
2023-04-09T08:58:49.626Z,8.29
2023-04-09T09:01:25.969Z,8.74
2023-04-09T09:04:01.556Z,8.31
2023-04-09T09:06:33.690Z,8.03
2023-04-09T09:09:06.438Z,8.23
2023-04-09T09:11:35.526Z,8.09
2023-04-09T09:14:06.657Z,7.65
2023-04-09T09:16:36.319Z,7.56
2023-04-09T09:19:04.070Z,7.57
2023-04-09T09:21:34.797Z,7.47
2023-04-09T09:24:03.125Z,7.36
2023-04-09T09:26:32.054Z,7.55
2023-04-09T09:29:05.737Z,7.32
2023-04-09T09:31:49.373Z,7.88
2023-04-09T09:34:18.236Z,8.36
2023-04-09T09:36:48.364Z,7.78
2023-04-09T09:39:18.292Z,8.06
2023-04-09T09:41:48.812Z,8.34
2023-04-09T09:44:33.865Z,8.30
2023-04-09T09:47:05.431Z,8.12
2023-04-09T09:49:33.467Z,8.07
2023-04-09T09:52:10.358Z,8.15
2023-04-09T09:54:43.085Z,8.21
2023-04-09T09:57:13.640Z,8.30
2023-04-09T09:59:47.926Z,8.43
2023-04-09T10:02:21.792Z,8.95
2023-04-09T10:04:52.568Z,9.40
2023-04-09T10:07:24.001Z,9.34
2023-04-09T10:09:55.342Z,9.57
2023-04-09T10:12:25.913Z,9.63
2023-04-09T10:14:56.029Z,9.39
2023-04-09T10:17:24.015Z,9.34
2023-04-09T10:20:05.363Z,9.62
2023-04-09T10:22:37.231Z,9.98
2023-04-09T10:25:06.684Z,10.15
2023-04-09T10:27:34.754Z,10.24
2023-04-09T10:30:03.092Z,10.51
2023-04-09T10:32:37.341Z,10.14
2023-04-09T10:35:06.886Z,10.40
2023-04-09T10:37:37.243Z,9.73
2023-04-09T10:40:06.026Z,9.72
2023-04-09T10:42:42.007Z,9.65
2023-04-09T10:45:12.012Z,9.60
2023-04-09T10:47:42.508Z,10.08
2023-04-09T10:50:22.439Z,10.38
2023-04-09T10:52:57.402Z,10.64
2023-04-09T10:55:37.342Z,10.91
2023-04-09T10:58:07.195Z,10.62
2023-04-09T11:00:40.710Z,10.55
2023-04-09T11:03:25.219Z,10.64
2023-04-09T11:05:59.350Z,10.73
2023-04-09T11:08:32.736Z,10.65
2023-04-09T11:11:02.274Z,10.49
2023-04-09T11:13:32.767Z,10.38
2023-04-09T11:16:03.982Z,10.35
2023-04-09T11:18:34.483Z,10.82
2023-04-09T11:21:04.550Z,11.41
2023-04-09T11:23:34.706Z,11.72
2023-04-09T11:26:02.967Z,11.50
2023-04-09T11:28:31.002Z,11.63
2023-04-09T11:30:59.062Z,11.61
2023-04-09T11:33:34.297Z,11.63
2023-04-09T11:36:02.541Z,10.90
2023-04-09T11:38:33.992Z,11.35
2023-04-09T11:41:03.177Z,11.62
2023-04-09T11:43:31.178Z,11.29
2023-04-09T11:46:00.496Z,10.56
2023-04-09T11:48:28.614Z,10.32
2023-04-09T11:50:57.069Z,10.18
2023-04-09T11:53:31.335Z,10.39
2023-04-09T11:56:00.814Z,10.43
2023-04-09T11:58:28.943Z,10.61
2023-04-09T12:01:00.058Z,11.05
2023-04-09T12:03:32.822Z,11.06
2023-04-09T12:06:03.792Z,11.21
2023-04-09T12:08:34.456Z,11.41
2023-04-09T12:11:11.759Z,11.04
2023-04-09T12:13:43.101Z,10.63
2023-04-09T12:16:11.806Z,10.66
2023-04-09T12:18:41.133Z,10.62
2023-04-09T12:21:09.216Z,10.80
2023-04-09T12:23:37.220Z,10.82
2023-04-09T12:26:05.649Z,11.48
2023-04-09T12:28:34.981Z,11.70
2023-04-09T12:31:03.500Z,11.98
2023-04-09T12:33:32.257Z,11.95
2023-04-09T12:36:00.545Z,12.26
2023-04-09T12:38:28.655Z,11.86
2023-04-09T12:40:56.642Z,11.41
2023-04-09T12:43:24.607Z,11.67
2023-04-09T12:45:53.926Z,11.20
2023-04-09T12:48:22.005Z,11.38
2023-04-09T12:50:49.952Z,11.57
2023-04-09T12:53:18.344Z,11.40
2023-04-09T12:55:46.846Z,11.45
2023-04-09T12:58:14.785Z,11.56
2023-04-09T13:00:43.092Z,11.16
2023-04-09T13:03:12.693Z,11.12
2023-04-09T13:05:40.688Z,11.43
2023-04-09T13:08:08.803Z,11.86
2023-04-09T13:10:37.499Z,11.58
2023-04-09T13:13:06.131Z,11.74
2023-04-09T13:15:34.144Z,11.99
2023-04-09T13:18:02.111Z,12.26
2023-04-09T13:20:31.605Z,12.39
2023-04-09T13:22:59.528Z,11.97
2023-04-09T13:25:27.580Z,11.87
2023-04-09T13:27:55.562Z,11.82
2023-04-09T13:30:23.977Z,11.80
2023-04-09T13:32:52.049Z,12.05
2023-04-09T13:35:20.062Z,12.13
2023-04-09T13:37:49.427Z,12.22
2023-04-09T13:40:17.708Z,12.15
2023-04-09T13:42:45.656Z,12.29
2023-04-09T13:45:13.648Z,12.74
2023-04-09T13:47:42.968Z,12.69
2023-04-09T13:50:13.129Z,13.00
2023-04-09T13:52:41.143Z,13.08
2023-04-09T13:55:11.515Z,13.09
2023-04-09T13:57:39.563Z,13.02
2023-04-09T14:00:09.670Z,12.93
2023-04-09T14:02:37.711Z,12.79
2023-04-09T14:05:06.812Z,13.17
2023-04-09T14:07:34.716Z,13.11
2023-04-09T14:10:02.841Z,12.53
2023-04-09T14:12:32.410Z,13.01
2023-04-09T14:15:00.384Z,12.55
2023-04-09T14:17:28.415Z,12.33
2023-04-09T14:19:57.873Z,12.70
2023-04-09T14:22:26.415Z,13.06
2023-04-09T14:24:54.378Z,13.52
2023-04-09T14:27:22.406Z,13.44
2023-04-09T14:29:52.489Z,13.18
2023-04-09T14:32:20.678Z,12.96
2023-04-09T14:34:48.651Z,13.07
2023-04-09T14:37:17.223Z,12.98
2023-04-09T14:39:45.258Z,12.98
2023-04-09T14:42:13.235Z,13.38
2023-04-09T14:44:41.290Z,13.29
2023-04-09T14:47:10.723Z,13.72
2023-04-09T14:49:38.674Z,13.61
2023-04-09T14:52:07.377Z,13.58
2023-04-09T14:54:37.495Z,13.30
2023-04-09T14:57:05.733Z,13.55
2023-04-09T14:59:33.756Z,13.43
2023-04-09T15:02:01.956Z,13.40
2023-04-09T15:04:31.478Z,13.14
2023-04-09T15:06:59.593Z,13.06
2023-04-09T15:09:27.585Z,13.11
2023-04-09T15:11:56.056Z,13.08
2023-04-09T15:14:24.747Z,12.99
2023-04-09T15:16:55.723Z,12.93
2023-04-09T15:19:23.733Z,12.72
2023-04-09T15:21:53.050Z,12.87
2023-04-09T15:24:21.013Z,13.19
2023-04-09T15:26:49.693Z,13.10
2023-04-09T15:29:17.685Z,13.75
2023-04-09T15:31:45.771Z,13.78
2023-04-09T15:34:13.826Z,13.92
2023-04-09T15:36:41.806Z,13.97
2023-04-09T15:39:11.698Z,14.08
2023-04-09T15:41:39.800Z,13.85
2023-04-09T15:44:08.238Z,14.17
2023-04-09T15:46:36.361Z,14.20
2023-04-09T15:49:04.936Z,14.21
2023-04-09T15:51:32.889Z,14.22
2023-04-09T15:54:00.867Z,14.02
2023-04-09T15:56:30.268Z,14.10
2023-04-09T15:58:58.834Z,14.50
2023-04-09T16:01:26.992Z,14.77
2023-04-09T16:03:55.148Z,15.28
2023-04-09T16:06:23.244Z,14.83
2023-04-09T16:08:51.364Z,15.37
2023-04-09T16:11:19.646Z,14.86
2023-04-09T16:13:49.189Z,14.95
2023-04-09T16:16:17.154Z,15.12
2023-04-09T16:18:45.198Z,15.33
2023-04-09T16:21:13.484Z,15.63
2023-04-09T16:23:41.954Z,15.95
2023-04-09T16:26:11.668Z,15.82
2023-04-09T16:28:39.804Z,15.55
2023-04-09T16:31:09.204Z,15.10
2023-04-09T16:33:37.187Z,15.46
2023-04-09T16:36:05.805Z,15.43
2023-04-09T16:38:33.849Z,15.26
2023-04-09T16:41:01.926Z,15.15
2023-04-09T16:43:31.611Z,16.06
2023-04-09T16:45:59.615Z,15.66
2023-04-09T16:48:28.979Z,15.43
2023-04-09T16:50:56.905Z,15.30
2023-04-09T16:53:25.022Z,15.17
2023-04-09T16:55:53.508Z,14.85
2023-04-09T16:58:21.543Z,14.99
2023-04-09T17:00:51.858Z,14.91
2023-04-09T17:03:20.173Z,14.86
2023-04-09T17:05:49.743Z,14.94
2023-04-09T17:08:18.335Z,14.75
2023-04-09T17:10:46.358Z,14.74
2023-04-09T17:13:14.485Z,14.46
2023-04-09T17:15:42.707Z,14.75
2023-04-09T17:18:10.941Z,14.01
2023-04-09T17:20:41.460Z,13.29
2023-04-09T17:23:10.834Z,12.78
2023-04-09T17:25:42.255Z,12.38
2023-04-09T17:28:10.222Z,11.97
2023-04-09T17:30:38.206Z,11.95
2023-04-09T17:33:06.446Z,12.20
2023-04-09T17:35:37.508Z,12.02
2023-04-09T17:38:05.812Z,11.82
2023-04-09T17:40:35.308Z,11.73
2023-04-09T17:43:03.236Z,11.52
2023-04-09T17:45:31.460Z,11.44
2023-04-09T17:47:59.926Z,11.20
2023-04-09T17:50:28.052Z,11.19
2023-04-09T17:52:56.884Z,10.92
2023-04-09T17:55:25.468Z,10.67
2023-04-09T17:57:55.039Z,10.64
2023-04-09T18:00:23.603Z,10.51
2023-04-09T18:02:53.689Z,10.46
2023-04-09T18:05:23.101Z,10.54
2023-04-09T18:07:52.205Z,10.38
2023-04-09T18:10:21.789Z,10.44
2023-04-09T18:12:49.813Z,10.50
2023-04-09T18:15:19.518Z,10.29
2023-04-09T18:17:47.472Z,10.25
2023-04-09T18:20:16.153Z,10.29
2023-04-09T18:22:44.505Z,10.29
2023-04-09T18:25:12.604Z,10.35
2023-04-09T18:27:40.581Z,10.15
2023-04-09T18:30:10.933Z,10.07
2023-04-09T18:32:40.337Z,9.97
2023-04-09T18:35:09.267Z,9.95
2023-04-09T18:37:37.971Z,9.83
2023-04-09T18:40:07.871Z,9.62
2023-04-09T18:42:36.066Z,9.51
2023-04-09T18:45:04.238Z,9.42
2023-04-09T18:47:32.329Z,9.35
2023-04-09T18:50:02.378Z,9.34
2023-04-09T18:52:33.497Z,9.28
2023-04-09T18:55:01.488Z,9.20
2023-04-09T18:57:29.537Z,9.13
2023-04-09T18:59:57.572Z,9.05
2023-04-09T19:02:25.698Z,8.98
2023-04-09T19:04:55.654Z,8.93
2023-04-09T19:07:25.231Z,8.89
2023-04-09T19:09:53.269Z,8.86
2023-04-09T19:12:21.342Z,8.81
2023-04-09T19:14:49.416Z,8.77
2023-04-09T19:17:17.658Z,8.68
2023-04-09T19:19:45.640Z,8.62
2023-04-09T19:22:14.218Z,8.52
2023-04-09T19:24:45.934Z,8.52
2023-04-09T19:27:14.041Z,8.52
2023-04-09T19:29:42.092Z,8.46
2023-04-09T19:32:12.784Z,8.46
2023-04-09T19:34:40.917Z,8.45
2023-04-09T19:37:09.046Z,8.63
2023-04-09T19:39:37.192Z,8.70
2023-04-09T19:42:06.736Z,8.76
2023-04-09T19:44:34.731Z,8.89
2023-04-09T19:47:02.813Z,8.93
2023-04-09T19:49:30.883Z,8.85
2023-04-09T19:51:58.965Z,8.70
2023-04-09T19:54:27.350Z,8.70
2023-04-09T19:56:55.947Z,8.62
2023-04-09T19:59:26.218Z,8.63
2023-04-09T20:01:54.626Z,8.52
2023-04-09T20:04:24.583Z,8.51
2023-04-09T20:06:52.795Z,8.49
2023-04-09T20:09:23.863Z,8.50
2023-04-09T20:11:52.350Z,8.41
2023-04-09T20:14:20.424Z,8.35
2023-04-09T20:16:49.845Z,8.28
2023-04-09T20:19:19.808Z,8.24
2023-04-09T20:21:56.787Z,8.18
2023-04-09T20:24:26.909Z,8.15
2023-04-09T20:26:55.228Z,8.07
2023-04-09T20:29:23.248Z,8.05
2023-04-09T20:31:52.672Z,8.03
2023-04-09T20:34:20.767Z,7.96
2023-04-09T20:36:48.738Z,7.91
2023-04-09T20:39:18.145Z,7.81
2023-04-09T20:41:46.423Z,7.75
2023-04-09T20:44:14.424Z,7.70
2023-04-09T20:46:42.431Z,7.66
2023-04-09T20:49:12.230Z,7.64
2023-04-09T20:51:40.477Z,7.50
2023-04-09T20:54:08.527Z,7.45
2023-04-09T20:56:36.516Z,7.56
2023-04-09T20:59:04.631Z,7.35
2023-04-09T21:01:33.270Z,7.23
2023-04-09T21:04:01.838Z,7.22
2023-04-09T21:06:31.300Z,7.20
2023-04-09T21:08:59.933Z,7.20
2023-04-09T21:11:28.059Z,7.17
2023-04-09T21:13:56.021Z,7.34
2023-04-09T21:16:25.954Z,7.43
2023-04-09T21:18:54.171Z,7.46
2023-04-09T21:21:22.381Z,7.43
2023-04-09T21:23:51.734Z,7.40
2023-04-09T21:26:19.781Z,7.41
2023-04-09T21:28:50.345Z,7.26
2023-04-09T21:31:18.584Z,7.22
2023-04-09T21:33:46.546Z,7.05
2023-04-09T21:36:14.579Z,7.07
2023-04-09T21:38:42.605Z,7.00
2023-04-09T21:41:11.928Z,7.10
2023-04-09T21:43:40.023Z,7.17
2023-04-09T21:46:08.107Z,7.00
2023-04-09T21:48:37.248Z,6.89
2023-04-09T21:51:10.927Z,6.73
2023-04-09T21:53:39.227Z,6.78
2023-04-09T21:56:08.411Z,6.85
2023-04-09T21:58:37.761Z,6.93
2023-04-09T22:01:13.029Z,6.81
2023-04-09T22:03:46.966Z,6.73
2023-04-09T22:06:14.900Z,6.71
2023-04-09T22:08:54.952Z,6.73
2023-04-09T22:11:28.103Z,6.67
2023-04-09T22:13:58.614Z,6.65
2023-04-09T22:16:27.111Z,6.58
2023-04-09T22:18:56.185Z,6.60
2023-04-09T22:21:24.542Z,6.57
2023-04-09T22:23:52.521Z,6.64
2023-04-09T22:26:21.509Z,6.81
2023-04-09T22:28:50.153Z,6.84
2023-04-09T22:31:19.929Z,6.79
2023-04-09T22:33:47.922Z,6.63
2023-04-09T22:36:15.962Z,6.60
2023-04-09T22:38:43.889Z,6.65
2023-04-09T22:41:11.823Z,6.63
2023-04-09T22:43:39.755Z,6.59
2023-04-09T22:46:08.015Z,6.56
2023-04-09T22:48:44.187Z,6.55
2023-04-09T22:51:13.520Z,6.41
2023-04-09T22:53:41.456Z,6.45
2023-04-09T22:56:10.192Z,6.41
2023-04-09T22:58:39.255Z,6.40
2023-04-09T23:01:08.183Z,6.33
2023-04-09T23:03:37.522Z,6.33
2023-04-09T23:06:06.058Z,6.28
2023-04-09T23:08:34.044Z,6.21
2023-04-09T23:11:02.040Z,6.17
2023-04-09T23:13:30.000Z,6.15
2023-04-09T23:15:57.961Z,6.10
2023-04-09T23:18:26.097Z,6.08
2023-04-09T23:20:55.363Z,6.02
2023-04-09T23:23:23.381Z,5.96
2023-04-09T23:25:51.285Z,6.07
2023-04-09T23:28:19.181Z,6.14
2023-04-09T23:30:47.122Z,6.15
2023-04-09T23:33:15.044Z,6.03
2023-04-09T23:35:43.095Z,6.04
2023-04-09T23:38:12.446Z,6.03
2023-04-09T23:40:40.454Z,5.97
2023-04-09T23:43:08.805Z,6.00
2023-04-09T23:45:36.958Z,5.86
2023-04-09T23:48:08.841Z,5.89
2023-04-09T23:50:39.756Z,5.77
2023-04-09T23:53:07.860Z,5.84
2023-04-09T23:55:40.682Z,5.81
2023-04-09T23:58:09.691Z,5.72
